Stuttgart, Germany
Current Conditions -  °F | °C
As of 3:20 PM on Tuesday 27 Jan 2015 (Local Time) from EDDS Reporting Station
Snow Showers Snow Showers  
Wind Chill: 29°   Ceiling: 4000
Heat Index: 37°   Visibility: 6mi
Dew Point: 30°   Wind: 14mph
Humidity: 75%   Direction: 270°W
Pressure: 30.15"   Gusts: NA
Location:  48.78°N, 9.18°E
Report Text: EDDS 271420Z 27012KT 9000 -SHSN FEW010 SCT030 BKN040 03/M01 Q1021 R25/29//95 TEMPO 4500 SHSN BKN014
Loading
Personal Weather Stations






























Interactive Weather Map New forecast layout! Learn more

10-Day Weather Forecast

Advertisements
Track Severe Weather on mobile